Time;durP1;ratioP1;P1;durP2;ratioP2;P2;SDS_P1;SDS_P2;PMS_P1;PMS_P2;Temp;Humidity;BMP_temperature;BMP_pressure;BME280_temperature;BME280_humidity;BME280_pressure;Samples;Min_cycle;Max_cycle;Signal;HPM_P1;HPM_P2
2023/05/10 00:00:44;;;;;;;0.80;0.80;;;;;;;10.62;90.63;97419.28;5005612;28;20054;-69
2023/05/10 00:03:11;;;;;;;0.90;0.90;;;;;;;11.13;90.72;97444.19;5005674;28;20476;-69
2023/05/10 00:05:38;;;;;;;0.80;0.80;;;;;;;10.85;92.69;97415.84;5005811;28;20062;-69
2023/05/10 00:08:05;;;;;;;0.95;0.95;;;;;;;11.19;92.07;97448.25;5005094;28;20053;-69
2023/05/10 00:10:31;;;;;;;0.90;0.90;;;;;;;10.84;92.40;97439.19;5005444;28;20046;-68
2023/05/10 00:12:58;;;;;;;0.80;0.80;;;;;;;10.44;93.07;97412.56;5003826;28;20057;-68
2023/05/10 00:15:25;;;;;;;0.90;0.90;;;;;;;10.45;92.78;97444.63;5003685;28;20149;-68
2023/05/10 00:17:51;;;;;;;0.80;0.80;;;;;;;10.19;96.70;97438.84;5005510;28;20060;-69
2023/05/10 00:20:18;;;;;;;0.90;0.90;;;;;;;10.45;94.07;97405.03;5005176;28;20065;-67
2023/05/10 00:22:45;;;;;;;0.80;0.80;;;;;;;10.35;93.99;97398.09;5005669;28;20046;-69
2023/05/10 00:25:12;;;;;;;0.80;0.80;;;;;;;10.33;94.01;97447.50;5005180;28;20136;-68
2023/05/10 00:27:38;;;;;;;0.80;0.80;;;;;;;9.87;96.58;97437.22;5005746;28;20444;-69
2023/05/10 00:30:06;;;;;;;0.80;0.80;;;;;;;10.01;97.33;97437.56;5004756;28;20077;-68
2023/05/10 00:32:32;;;;;;;0.80;0.80;;;;;;;10.22;96.39;97432.59;5005313;28;20445;-68
2023/05/10 00:34:59;;;;;;;0.80;0.80;;;;;;;10.07;97.20;97366.97;5003938;28;20484;-68
2023/05/10 00:37:26;;;;;;;0.80;0.80;;;;;;;10.24;93.99;97429.47;5005329;28;20527;-68
2023/05/10 00:39:53;;;;;;;0.80;0.80;;;;;;;10.45;94.40;97428.00;5005199;28;20137;-69
2023/05/10 00:42:19;;;;;;;0.82;0.82;;;;;;;10.50;92.46;97402.00;5004619;28;20046;-69
2023/05/10 00:44:46;;;;;;;0.80;0.80;;;;;;;10.68;93.78;97430.91;5004652;28;20487;-68
2023/05/10 00:47:13;;;;;;;0.80;0.80;;;;;;;10.79;92.95;97422.81;5004844;28;20058;-69
2023/05/10 00:49:41;;;;;;;0.90;0.90;;;;;;;10.76;94.28;97423.56;4999843;28;20090;-68
2023/05/10 00:52:08;;;;;;;0.90;0.90;;;;;;;10.90;90.11;97429.41;4983850;28;20117;-68
2023/05/10 00:54:36;;;;;;;0.80;0.80;;;;;;;10.91;87.70;97428.25;4983568;28;20054;-68
2023/05/10 00:57:03;;;;;;;0.90;0.90;;;;;;;10.88;87.75;97426.19;4985236;28;20112;-69
2023/05/10 00:59:29;;;;;;;1.00;1.00;;;;;;;11.04;86.61;97429.72;4984676;28;20046;-68
2023/05/10 01:01:57;;;;;;;0.80;0.80;;;;;;;10.40;87.02;97309.19;4985093;28;21122;-68
2023/05/10 01:04:28;;;;;;;0.80;0.80;;;;;;;10.93;89.43;97423.13;4985011;28;20054;-69
2023/05/10 01:06:55;;;;;;;0.80;0.80;;;;;;;10.67;89.11;97441.19;4985344;28;20532;-69
2023/05/10 01:09:22;;;;;;;0.90;0.90;;;;;;;10.04;90.40;97383.44;4984987;28;20505;-68
2023/05/10 01:11:49;;;;;;;0.90;0.90;;;;;;;10.09;93.13;97372.97;4996406;28;20160;-69
2023/05/10 01:14:18;;;;;;;0.75;0.75;;;;;;;10.52;91.71;97405.22;5004293;28;20054;-68
2023/05/10 01:16:46;;;;;;;0.85;0.85;;;;;;;10.72;90.41;97417.16;5004240;28;20104;-69
2023/05/10 01:19:18;;;;;;;0.80;0.80;;;;;;;10.49;90.96;97381.81;5004499;28;20045;-67
2023/05/10 01:22:00;;;;;;;0.80;0.80;;;;;;;10.78;91.13;97412.91;5004749;28;20308;-67
2023/05/10 01:24:42;;;;;;;0.88;0.88;;;;;;;10.89;90.83;97416.72;5004753;28;20072;-69
2023/05/10 01:27:26;;;;;;;0.80;0.80;;;;;;;10.96;92.39;97416.88;5004581;28;20131;-67
2023/05/10 01:30:20;;;;;;;0.80;0.80;;;;;;;10.89;93.40;97414.75;5003032;28;20049;-69
2023/05/10 01:33:07;;;;;;;0.90;0.90;;;;;;;8.69;91.94;97059.88;5004218;28;20725;-68
2023/05/10 01:35:41;;;;;;;0.90;0.90;;;;;;;10.58;91.70;97360.25;5003202;28;20739;-68
2023/05/10 01:38:22;;;;;;;0.80;0.80;;;;;;;10.94;92.31;97408.13;5005032;28;20092;-69
2023/05/10 01:41:08;;;;;;;0.85;0.85;;;;;;;10.92;92.51;97410.47;5002979;28;20065;-68
2023/05/10 01:43:57;;;;;;;0.98;0.98;;;;;;;11.02;91.33;97409.88;5004372;28;20061;-68
2023/05/10 01:46:42;;;;;;;0.88;0.88;;;;;;;10.87;92.22;97410.75;5004353;28;20500;-68
2023/05/10 01:49:22;;;;;;;0.80;0.80;;;;;;;10.43;92.24;97341.69;5004136;28;20561;-67
2023/05/10 01:51:54;;;;;;;0.80;0.80;;;;;;;10.39;94.78;97374.06;5004336;28;20085;-68
2023/05/10 01:54:24;;;;;;;0.80;0.80;;;;;;;10.65;94.95;97407.50;5003987;28;20085;-67
2023/05/10 01:56:58;;;;;;;0.80;0.80;;;;;;;10.82;93.74;97405.47;5004280;28;20046;-68
2023/05/10 01:59:29;;;;;;;0.80;0.80;;;;;;;10.89;91.98;97406.44;5004494;28;20089;-67
2023/05/10 02:01:59;;;;;;;0.90;0.90;;;;;;;10.83;91.44;97413.41;5003857;28;20097;-66
2023/05/10 02:04:27;;;;;;;0.80;0.80;;;;;;;10.46;93.00;97376.97;5004687;28;20157;-68
2023/05/10 02:06:55;;;;;;;0.80;0.80;;;;;;;10.71;94.03;97421.88;5002663;28;20053;-67
2023/05/10 02:09:24;;;;;;;0.80;0.80;;;;;;;10.28;94.25;97380.50;5004105;28;20588;-68
2023/05/10 02:11:51;;;;;;;0.77;0.77;;;;;;;10.73;94.06;97414.78;5006114;28;20089;-66
2023/05/10 02:14:19;;;;;;;0.80;0.80;;;;;;;10.79;92.42;97415.34;5007027;28;20116;-66
2023/05/10 02:16:47;;;;;;;0.90;0.90;;;;;;;10.33;91.39;97339.53;5007859;28;20050;-67
2023/05/10 02:19:15;;;;;;;0.77;0.77;;;;;;;10.77;92.61;97408.53;5007615;28;20054;-66
2023/05/10 02:21:43;;;;;;;0.80;0.80;;;;;;;10.33;91.17;97356.13;5007204;28;20092;-66
2023/05/10 02:24:11;;;;;;;0.85;0.85;;;;;;;10.65;93.17;97418.56;5006404;28;20129;-67
2023/05/10 02:26:38;;;;;;;0.80;0.80;;;;;;;10.67;92.29;97405.16;5007650;28;20092;-67
2023/05/10 02:29:06;;;;;;;0.90;0.90;;;;;;;10.73;91.83;97409.25;5007364;28;20514;-68
2023/05/10 02:31:35;;;;;;;0.80;0.80;;;;;;;10.56;91.67;97398.59;5005761;28;20501;-68
2023/05/10 02:34:03;;;;;;;0.80;0.80;;;;;;;10.57;92.25;97377.25;5007155;28;20049;-66
2023/05/10 02:36:31;;;;;;;0.80;0.80;;;;;;;10.50;92.39;97397.25;5007327;28;20492;-67
2023/05/10 02:39:00;;;;;;;0.80;0.80;;;;;;;10.29;94.44;97379.38;5007073;28;20045;-66
2023/05/10 02:41:30;;;;;;;0.80;0.80;;;;;;;10.28;95.48;97386.88;5005742;28;20049;-67
2023/05/10 02:44:01;;;;;;;0.80;0.80;;;;;;;10.33;96.05;97400.44;5004829;28;20516;-67
2023/05/10 02:46:27;;;;;;;0.80;0.80;;;;;;;10.36;97.60;97409.97;5006201;28;20586;-66
2023/05/10 02:48:54;;;;;;;0.80;0.80;;;;;;;10.32;97.33;97415.41;5006397;28;20141;-67
2023/05/10 02:51:25;;;;;;;0.80;0.80;;;;;;;10.27;95.25;97401.88;5006026;28;20153;-67
2023/05/10 02:53:53;;;;;;;0.80;0.80;;;;;;;10.20;95.16;97407.22;5006316;28;20061;-66
2023/05/10 02:56:28;;;;;;;0.70;0.70;;;;;;;10.14;97.21;97403.13;5006224;28;20491;-66
2023/05/10 02:58:55;;;;;;;0.80;0.80;;;;;;;10.16;97.46;97400.78;5007194;28;20516;-65
2023/05/10 03:01:22;;;;;;;0.80;0.80;;;;;;;10.24;98.14;97402.56;5005083;28;20495;-65
2023/05/10 03:03:48;;;;;;;0.73;0.73;;;;;;;10.21;98.56;97403.28;5007204;28;20149;-66
2023/05/10 03:06:16;;;;;;;0.80;0.80;;;;;;;10.23;98.78;97411.25;5021415;28;20093;-67
2023/05/10 03:08:44;;;;;;;0.80;0.80;;;;;;;10.04;98.59;97431.31;5006802;28;20137;-66
2023/05/10 03:11:39;;;;;;;0.90;0.90;;;;;;;10.28;94.47;97403.47;5005280;28;20500;-66
2023/05/10 03:14:39;;;;;;;0.80;0.80;;;;;;;10.23;95.23;97409.28;4998596;28;20585;-66
2023/05/10 03:17:11;;;;;;;0.80;0.80;;;;;;;10.26;95.98;97422.41;5005275;28;20096;-66
2023/05/10 03:19:52;;;;;;;0.80;0.80;;;;;;;9.95;95.78;97367.06;5006650;28;20587;-66
2023/05/10 03:22:47;;;;;;;0.80;0.80;;;;;;;10.28;96.63;97406.25;5005690;28;20142;-66
2023/05/10 03:25:16;;;;;;;0.80;0.80;;;;;;;10.27;96.58;97410.19;5006863;28;20057;-66
2023/05/10 03:27:44;;;;;;;0.80;0.80;;;;;;;10.26;97.10;97416.88;5006320;28;20054;-66
2023/05/10 03:30:13;;;;;;;0.80;0.80;;;;;;;10.10;96.64;97377.31;5006298;28;20050;-66
2023/05/10 03:32:40;;;;;;;0.80;0.80;;;;;;;10.18;96.02;97370.78;5004897;28;20049;-66
2023/05/10 03:35:12;;;;;;;0.85;0.85;;;;;;;10.41;96.77;97420.78;5006475;28;20069;-64
2023/05/10 03:37:39;;;;;;;0.80;0.80;;;;;;;10.21;96.18;97386.69;5005757;28;20072;-67
2023/05/10 03:40:06;;;;;;;0.80;0.80;;;;;;;10.24;95.65;97396.25;5006057;28;20053;-67
2023/05/10 03:42:33;;;;;;;0.90;0.90;;;;;;;10.58;95.95;97435.03;5006077;28;20050;-66
2023/05/10 03:44:59;;;;;;;0.80;0.80;;;;;;;10.67;94.98;97432.88;5005924;28;20468;-67
2023/05/10 03:47:26;;;;;;;0.80;0.80;;;;;;;10.71;95.20;97427.41;5005889;28;20054;-67
2023/05/10 03:49:53;;;;;;;0.80;0.80;;;;;;;10.70;94.40;97434.91;5004647;28;20050;-67
2023/05/10 03:52:19;;;;;;;0.80;0.80;;;;;;;10.73;95.04;97427.06;5005468;28;20062;-67
2023/05/10 03:54:46;;;;;;;0.90;0.90;;;;;;;10.61;94.15;97434.31;5004317;28;20077;-67
2023/05/10 03:57:12;;;;;;;0.80;0.80;;;;;;;10.55;95.04;97430.22;5005773;28;20054;-67
2023/05/10 03:59:39;;;;;;;0.90;0.90;;;;;;;10.62;95.90;97427.59;5004420;28;20058;-67
2023/05/10 04:02:06;;;;;;;0.88;0.88;;;;;;;10.73;94.67;97432.59;5005603;28;20093;-67
2023/05/10 04:04:32;;;;;;;0.80;0.80;;;;;;;10.69;94.70;97436.09;5005561;28;20481;-68
2023/05/10 04:06:59;;;;;;;0.80;0.80;;;;;;;10.63;93.91;97437.53;5005918;28;20104;-66
2023/05/10 04:09:26;;;;;;;0.88;0.88;;;;;;;10.61;93.22;97431.56;5004737;28;20476;-67
2023/05/10 04:11:52;;;;;;;0.85;0.85;;;;;;;10.64;94.22;97439.13;5014671;28;20479;-67
2023/05/10 04:14:19;;;;;;;0.80;0.80;;;;;;;10.55;93.19;97421.91;5025131;28;20087;-67
2023/05/10 04:16:45;;;;;;;0.90;0.90;;;;;;;9.83;92.13;97305.47;5023688;28;20227;-66
2023/05/10 04:19:12;;;;;;;0.82;0.82;;;;;;;10.32;92.62;97386.94;5025462;28;20053;-68
2023/05/10 04:21:39;;;;;;;0.80;0.80;;;;;;;10.35;92.15;97347.47;5023684;28;20140;-67
2023/05/10 04:24:06;;;;;;;0.80;0.80;;;;;;;10.88;91.00;97443.63;5024014;28;20053;-67
2023/05/10 04:26:32;;;;;;;0.88;0.88;;;;;;;10.90;90.90;97451.56;5025188;28;20045;-67
2023/05/10 04:28:59;;;;;;;0.80;0.80;;;;;;;10.68;89.45;97417.06;5023211;28;20072;-66
2023/05/10 04:31:27;;;;;;;0.80;0.80;;;;;;;10.56;90.26;97440.13;5023274;28;20516;-68
2023/05/10 04:33:54;;;;;;;0.90;0.90;;;;;;;10.09;91.07;97341.69;5023908;28;20512;-67
2023/05/10 04:36:21;;;;;;;0.80;0.80;;;;;;;10.72;92.63;97439.31;5024912;28;20053;-67
2023/05/10 04:38:47;;;;;;;0.82;0.82;;;;;;;10.59;92.84;97375.69;5024547;28;20174;-68
2023/05/10 04:41:14;;;;;;;0.90;0.90;;;;;;;10.55;90.65;97366.53;5024931;28;20061;-66
2023/05/10 04:43:41;;;;;;;0.90;0.90;;;;;;;10.73;90.95;97388.25;5024481;28;20081;-67
2023/05/10 04:46:07;;;;;;;0.80;0.80;;;;;;;11.12;90.52;97425.91;5024807;28;20115;-67
2023/05/10 04:48:34;;;;;;;0.90;0.90;;;;;;;11.22;89.28;97425.34;5024761;28;20103;-67
2023/05/10 04:51:01;;;;;;;0.90;0.90;;;;;;;11.30;89.40;97427.88;5024754;28;20649;-67
2023/05/10 04:53:28;;;;;;;0.90;0.90;;;;;;;11.46;88.37;97434.16;5024519;28;20061;-66
2023/05/10 04:55:54;;;;;;;0.90;0.90;;;;;;;11.43;85.69;97420.25;5023015;28;20048;-65
2023/05/10 04:58:21;;;;;;;1.00;1.00;;;;;;;9.83;85.42;97140.28;5021313;28;20127;-61
2023/05/10 05:00:48;;;;;;;0.90;0.90;;;;;;;10.93;84.40;97273.47;5019878;28;20084;-63
2023/05/10 05:03:15;;;;;;;0.98;0.98;;;;;;;10.64;84.39;97267.38;5021810;28;20079;-65
2023/05/10 05:05:41;;;;;;;0.93;0.93;;;;;;;11.50;84.86;97387.06;5023948;28;20049;-64
2023/05/10 05:08:08;;;;;;;1.00;1.00;;;;;;;12.05;84.73;97430.94;5023990;28;20125;-62
2023/05/10 05:10:35;;;;;;;1.00;1.00;;;;;;;12.20;83.92;97432.78;5023319;28;20088;-66
2023/05/10 05:13:02;;;;;;;1.00;1.00;;;;;;;12.29;81.78;97436.09;5022496;28;20080;-66
2023/05/10 05:15:29;;;;;;;1.00;1.00;;;;;;;12.27;82.54;97438.44;5022872;28;20138;-65
2023/05/10 05:17:56;;;;;;;0.90;0.90;;;;;;;10.34;80.37;97140.94;5024222;28;20115;-65
2023/05/10 05:20:23;;;;;;;0.95;0.95;;;;;;;12.14;81.74;97448.13;5024091;28;20079;-63
2023/05/10 05:22:49;;;;;;;0.90;0.90;;;;;;;12.37;80.92;97437.84;5022433;28;20045;-66
2023/05/10 05:25:16;;;;;;;1.00;1.00;;;;;;;12.48;78.66;97436.03;5022550;28;20136;-64
2023/05/10 05:27:43;;;;;;;1.00;1.00;;;;;;;12.26;77.53;97372.97;5023891;28;20053;-66
2023/05/10 05:30:10;;;;;;;0.93;0.93;;;;;;;12.69;76.00;97438.31;5022384;28;20053;-65
2023/05/10 05:32:36;;;;;;;1.00;1.00;;;;;;;12.76;73.99;97439.22;5022072;28;20568;-63
2023/05/10 05:35:03;;;;;;;1.00;1.00;;;;;;;11.86;74.39;97333.81;5023652;28;20045;-66
2023/05/10 05:37:30;;;;;;;1.00;1.00;;;;;;;10.79;74.46;97159.59;5024058;28;20057;-66
2023/05/10 05:39:56;;;;;;;1.10;1.10;;;;;;;12.41;75.05;97455.34;5023890;28;20088;-67
2023/05/10 05:42:23;;;;;;;1.00;1.00;;;;;;;12.58;74.60;97459.59;5022638;28;20155;-62
2023/05/10 05:44:50;;;;;;;0.95;0.95;;;;;;;12.79;74.48;97466.28;5022077;28;20057;-66
2023/05/10 05:47:17;;;;;;;0.90;0.90;;;;;;;12.07;73.71;97367.50;5026037;28;20050;-65
2023/05/10 05:49:45;;;;;;;1.10;1.10;;;;;;;12.56;72.08;97468.31;5027500;28;20095;-67
2023/05/10 05:52:12;;;;;;;1.15;1.15;;;;;;;12.63;71.18;97432.28;5026600;28;20054;-67
2023/05/10 05:54:39;;;;;;;1.05;1.05;;;;;;;12.91;69.99;97451.38;5025347;28;20053;-63
2023/05/10 05:57:06;;;;;;;1.00;1.00;;;;;;;13.02;71.37;97469.03;5022239;28;20140;-62
2023/05/10 05:59:32;;;;;;;0.90;0.90;;;;;;;13.03;69.50;97443.63;5019531;28;20061;-61
2023/05/10 06:02:00;;;;;;;1.02;1.02;;;;;;;13.33;68.83;97469.47;5029682;28;20053;-58
2023/05/10 06:04:27;;;;;;;1.10;1.10;;;;;;;13.39;65.63;97431.78;5026561;28;20095;-63
2023/05/10 06:06:53;;;;;;;1.05;1.05;;;;;;;12.60;61.46;97296.06;5026231;28;20461;-70
2023/05/10 06:09:20;;;;;;;1.10;1.10;;;;;;;13.86;60.58;97469.31;5020085;28;20092;-59
2023/05/10 06:11:47;;;;;;;1.20;1.20;;;;;;;14.11;61.99;97470.34;5026495;28;20111;-67
2023/05/10 06:14:13;;;;;;;1.20;1.20;;;;;;;13.73;57.99;97448.47;5027011;28;20096;-60
2023/05/10 06:16:40;;;;;;;1.10;1.10;;;;;;;14.09;60.75;97472.72;5025271;28;20129;-59
2023/05/10 06:19:07;;;;;;;1.30;1.30;;;;;;;14.38;57.54;97471.84;5025740;28;20053;-63
2023/05/10 06:21:33;;;;;;;1.23;1.23;;;;;;;14.38;55.22;97480.22;5026417;28;20053;-61
2023/05/10 06:24:00;;;;;;;1.20;1.20;;;;;;;14.29;57.76;97474.94;5025573;28;20065;-62
2023/05/10 06:26:27;;;;;;;1.25;1.25;;;;;;;14.00;56.29;97385.88;5020864;28;20493;-69
2023/05/10 06:28:53;;;;;;;1.40;1.40;;;;;;;14.22;55.33;97438.63;5017295;28;20049;-65
2023/05/10 06:31:20;;;;;;;1.10;1.10;;;;;;;14.57;54.83;97488.34;5025074;28;20091;-67
2023/05/10 06:33:47;;;;;;;1.40;1.40;;;;;;;12.48;55.75;97072.03;5025016;28;20530;-62
2023/05/10 06:36:14;;;;;;;1.30;1.30;;;;;;;13.36;54.30;97379.66;5026882;28;20049;-63
2023/05/10 06:38:40;;;;;;;1.33;1.33;;;;;;;14.50;54.92;97479.91;5025510;28;20054;-66
2023/05/10 06:41:08;;;;;;;1.40;1.40;;;;;;;14.71;54.33;97478.13;5026849;28;20146;-68
2023/05/10 06:43:34;;;;;;;1.20;1.20;;;;;;;14.10;52.73;97401.91;5023995;28;20049;-63
2023/05/10 06:46:01;;;;;;;1.10;1.10;;;;;;;14.05;52.79;97378.00;5025594;28;20050;-66
2023/05/10 06:48:28;;;;;;;1.30;1.30;;;;;;;13.74;53.98;97399.97;5025728;28;20060;-66
2023/05/10 06:50:55;;;;;;;1.20;1.20;;;;;;;15.02;55.21;97469.16;5024550;28;20420;-64
2023/05/10 06:53:21;;;;;;;1.30;1.30;;;;;;;15.54;54.15;97476.25;5024071;28;20065;-62
2023/05/10 06:55:49;;;;;;;1.42;1.42;;;;;;;15.53;54.11;97491.41;5023124;28;20107;-62
2023/05/10 06:58:16;;;;;;;1.35;1.35;;;;;;;15.65;56.51;97482.69;5023691;28;21076;-61
2023/05/10 07:00:43;;;;;;;1.38;1.38;;;;;;;15.96;54.12;97476.44;5024603;28;20053;-67
2023/05/10 07:03:10;;;;;;;1.30;1.30;;;;;;;16.06;54.49;97481.22;5026872;28;20127;-61
2023/05/10 07:05:37;;;;;;;1.30;1.30;;;;;;;15.99;54.03;97453.28;5024143;28;20393;-62
2023/05/10 07:08:04;;;;;;;1.17;1.17;;;;;;;16.39;52.20;97483.69;5024843;28;20049;-62
2023/05/10 07:10:30;;;;;;;1.40;1.40;;;;;;;16.08;51.98;97470.47;5025302;28;20127;-59
2023/05/10 07:12:57;;;;;;;1.30;1.30;;;;;;;15.36;52.99;97369.28;5021541;28;20136;-62
2023/05/10 07:15:24;;;;;;;1.52;1.52;;;;;;;16.06;52.09;97486.03;5036189;28;20049;-60
2023/05/10 07:17:51;;;;;;;1.60;1.60;;;;;;;16.11;52.12;97486.44;5023165;28;20635;-58
2023/05/10 07:20:18;;;;;;;1.60;1.60;;;;;;;15.84;53.20;97487.94;5025566;28;20148;-67
2023/05/10 07:22:45;;;;;;;1.48;1.48;;;;;;;16.29;52.25;97490.09;5019684;28;20501;-62
2023/05/10 07:25:11;;;;;;;1.40;1.40;;;;;;;16.14;51.93;97482.03;5040972;28;20122;-70
2023/05/10 07:27:38;;;;;;;1.50;1.50;;;;;;;15.63;53.22;97493.47;5023964;28;22275;-66
2023/05/10 07:30:06;;;;;;;1.52;1.52;;;;;;;15.68;52.00;97492.28;5024669;28;20045;-61
2023/05/10 07:32:32;;;;;;;1.45;1.45;;;;;;;15.07;53.93;97490.31;5025673;28;20050;-63
2023/05/10 07:35:00;;;;;;;1.40;1.40;;;;;;;14.28;54.29;97442.69;5019296;28;20061;-66
2023/05/10 07:37:26;;;;;;;1.25;1.25;;;;;;;15.37;54.42;97488.09;5019765;28;20437;-64
2023/05/10 07:39:53;;;;;;;1.33;1.33;;;;;;;15.52;52.56;97450.72;5015523;28;20524;-63
2023/05/10 07:42:19;;;;;;;1.30;1.30;;;;;;;15.95;51.87;97486.00;5025808;28;20063;-68
2023/05/10 07:44:47;;;;;;;1.40;1.40;;;;;;;14.52;54.96;97436.53;5025798;28;20054;-72
2023/05/10 07:47:13;;;;;;;1.45;1.45;;;;;;;14.86;56.20;97492.94;5024910;28;20053;-68
2023/05/10 07:49:40;;;;;;;1.40;1.40;;;;;;;15.66;56.15;97484.31;5009304;28;20053;-63
2023/05/10 07:52:07;;;;;;;1.40;1.40;;;;;;;16.00;53.05;97438.09;5009916;28;20069;-70
2023/05/10 07:54:33;;;;;;;1.40;1.40;;;;;;;16.16;51.31;97480.47;5023496;28;20045;-59
2023/05/10 07:57:00;;;;;;;1.20;1.20;;;;;;;15.57;52.84;97477.47;5016419;28;20064;-62
2023/05/10 07:59:27;;;;;;;1.10;1.10;;;;;;;14.53;55.47;97487.50;5023801;28;20046;-66
2023/05/10 08:01:54;;;;;;;1.48;1.48;;;;;;;14.17;54.18;97440.97;5016961;28;20064;-71
2023/05/10 08:04:21;;;;;;;1.30;1.30;;;;;;;14.82;53.77;97478.19;5023292;28;20111;-59
2023/05/10 08:06:47;;;;;;;1.40;1.40;;;;;;;13.07;54.11;97283.16;5024238;28;20594;-70
2023/05/10 08:09:14;;;;;;;1.30;1.30;;;;;;;12.55;53.45;97035.97;5023646;28;20620;-67
2023/05/10 08:11:41;;;;;;;1.30;1.30;;;;;;;15.46;52.92;97420.78;5021468;28;20057;-64
2023/05/10 08:14:07;;;;;;;1.38;1.38;;;;;;;15.78;51.75;97458.78;5024935;28;20053;-70
2023/05/10 08:16:34;;;;;;;1.55;1.55;;;;;;;16.50;51.72;97490.13;5023281;28;20049;-67
2023/05/10 08:19:01;;;;;;;1.50;1.50;;;;;;;16.53;51.07;97489.31;5018634;28;20618;-59
2023/05/10 08:21:28;;;;;;;1.50;1.50;;;;;;;16.63;51.86;97493.31;5017159;28;20547;-63
2023/05/10 08:23:54;;;;;;;1.58;1.58;;;;;;;16.64;48.70;97462.16;5021320;28;20045;-65
2023/05/10 08:26:21;;;;;;;1.73;1.73;;;;;;;15.84;49.83;97373.41;5023103;28;20298;-70
2023/05/10 08:28:48;;;;;;;1.48;1.48;;;;;;;16.82;50.45;97473.34;5022515;28;20049;-60
2023/05/10 08:31:15;;;;;;;1.55;1.55;;;;;;;16.90;49.43;97479.75;5022288;28;20045;-64
2023/05/10 08:33:42;;;;;;;1.60;1.60;;;;;;;15.47;49.29;97247.28;5022284;28;20085;-62
2023/05/10 08:36:10;;;;;;;1.45;1.45;;;;;;;15.86;52.53;97477.19;5020482;28;20471;-61
2023/05/10 08:38:37;;;;;;;1.42;1.42;;;;;;;14.82;54.92;97455.88;5023337;28;20045;-66
2023/05/10 08:41:05;;;;;;;1.42;1.42;;;;;;;14.30;55.50;97417.22;5020417;28;20044;-71
2023/05/10 08:43:35;;;;;;;1.40;1.40;;;;;;;14.91;54.45;97436.81;5022990;28;20697;-61
2023/05/10 08:46:05;;;;;;;1.30;1.30;;;;;;;15.04;53.43;97380.31;5024050;28;20053;-70
2023/05/10 08:48:34;;;;;;;1.38;1.38;;;;;;;16.29;52.75;97461.31;5021427;28;20041;-63
2023/05/10 08:51:03;;;;;;;1.48;1.48;;;;;;;15.74;53.88;97469.19;5022102;28;20145;-63
2023/05/10 08:53:32;;;;;;;1.50;1.50;;;;;;;15.55;53.40;97405.25;5024145;28;20066;-60
2023/05/10 08:56:01;;;;;;;1.20;1.20;;;;;;;15.00;53.06;97428.91;5022658;28;20111;-64
2023/05/10 08:58:28;;;;;;;1.50;1.50;;;;;;;14.23;55.38;97386.47;5024506;28;20061;-62
2023/05/10 09:00:56;;;;;;;1.30;1.30;;;;;;;15.51;54.07;97471.44;5020280;28;20053;-62
2023/05/10 09:03:23;;;;;;;1.27;1.27;;;;;;;15.10;54.74;97468.03;5023486;28;20496;-74
2023/05/10 09:05:50;;;;;;;1.27;1.27;;;;;;;15.34;55.32;97476.91;5027885;28;20148;-71
2023/05/10 09:08:17;;;;;;;1.30;1.30;;;;;;;14.54;54.16;97363.66;5038497;28;20621;-62
2023/05/10 09:10:47;;;;;;;1.30;1.30;;;;;;;14.80;55.02;97474.97;5021638;28;20061;-67
2023/05/10 09:13:15;;;;;;;1.17;1.17;;;;;;;15.24;53.89;97472.88;5023654;28;20045;-63
2023/05/10 09:15:45;;;;;;;1.30;1.30;;;;;;;14.99;55.22;97427.28;5021345;28;20152;-63
2023/05/10 09:18:13;;;;;;;1.50;1.50;;;;;;;16.08;54.02;97411.78;5025182;28;20107;-61
2023/05/10 09:20:40;;;;;;;1.40;1.40;;;;;;;17.16;52.09;97449.31;5023273;28;20049;-63
2023/05/10 09:23:07;;;;;;;1.58;1.58;;;;;;;16.47;49.75;97359.47;5022194;28;20049;-61
2023/05/10 09:25:34;;;;;;;1.55;1.55;;;;;;;16.72;49.97;97467.75;5017075;28;20061;-59
2023/05/10 09:28:01;;;;;;;1.50;1.50;;;;;;;17.10;51.15;97436.13;5021072;28;20123;-67
2023/05/10 09:30:29;;;;;;;1.52;1.52;;;;;;;17.61;47.80;97458.78;5028663;28;20045;-64
2023/05/10 09:32:58;;;;;;;1.40;1.40;;;;;;;16.80;48.81;97402.22;5014448;28;20112;-69
2023/05/10 09:35:28;;;;;;;1.55;1.55;;;;;;;17.75;48.37;97409.09;5029812;28;20081;-72
2023/05/10 09:37:59;;;;;;;1.73;1.73;;;;;;;17.20;48.32;97452.13;5021923;28;20077;-64
2023/05/10 09:40:28;;;;;;;1.48;1.48;;;;;;;16.70;49.50;97447.78;5022692;28;20052;-71
2023/05/10 09:42:57;;;;;;;1.60;1.60;;;;;;;15.69;50.88;97343.88;5023293;28;20053;-70
2023/05/10 09:45:26;;;;;;;1.40;1.40;;;;;;;16.40;51.80;97450.94;5023484;28;20085;-61
2023/05/10 09:47:52;;;;;;;1.50;1.50;;;;;;;15.96;51.88;97325.53;5022071;28;20436;-71
2023/05/10 09:50:20;;;;;;;1.50;1.50;;;;;;;16.99;49.72;97416.56;5022116;28;20045;-69
2023/05/10 09:53:03;;;;;;;1.58;1.58;;;;;;;16.63;50.35;97375.06;5023538;28;20049;-60
2023/05/10 09:55:40;;;;;;;1.42;1.42;;;;;;;17.09;49.56;97440.13;5023253;28;20053;-61
2023/05/10 09:58:10;;;;;;;1.50;1.50;;;;;;;16.56;48.80;97446.59;5022326;28;20139;-69
2023/05/10 10:00:45;;;;;;;1.55;1.55;;;;;;;15.96;49.29;97303.19;5022131;28;20492;-60
2023/05/10 10:03:15;;;;;;;1.50;1.50;;;;;;;15.99;51.07;97433.72;5023185;28;20092;-69
2023/05/10 10:05:43;;;;;;;1.30;1.30;;;;;;;16.64;49.60;97433.41;5023378;28;20575;-71
2023/05/10 10:08:11;;;;;;;1.38;1.38;;;;;;;15.43;52.01;97436.31;5023170;28;20041;-60
2023/05/10 10:10:40;;;;;;;1.30;1.30;;;;;;;14.93;53.88;97412.91;5023388;28;20061;-59
2023/05/10 10:13:07;;;;;;;1.48;1.48;;;;;;;15.53;53.55;97357.38;5020255;28;20045;-69
2023/05/10 10:15:34;;;;;;;1.60;1.60;;;;;;;14.88;52.42;97387.38;5020456;28;20735;-67
2023/05/10 10:18:03;;;;;;;1.40;1.40;;;;;;;14.22;52.37;97287.38;5021995;28;20058;-60
2023/05/10 10:20:30;;;;;;;1.40;1.40;;;;;;;15.26;52.92;97423.06;5022074;28;20400;-68
2023/05/10 10:22:57;;;;;;;1.40;1.40;;;;;;;14.41;53.98;97211.88;5022090;28;20053;-63
2023/05/10 10:25:24;;;;;;;1.40;1.40;;;;;;;16.05;50.53;97275.63;5010570;28;20894;-71
2023/05/10 10:27:51;;;;;;;1.50;1.50;;;;;;;17.22;48.58;97421.69;5022657;28;20077;-68
2023/05/10 10:30:36;;;;;;;1.55;1.55;;;;;;;17.42;50.13;97411.66;5037225;28;20049;-63
2023/05/10 10:33:03;;;;;;;1.70;1.70;;;;;;;18.01;47.58;97410.56;5023239;28;20585;-67
2023/05/10 10:35:46;;;;;;;1.70;1.70;;;;;;;16.93;49.81;97431.38;5022660;28;20057;-68
2023/05/10 10:38:13;;;;;;;1.65;1.65;;;;;;;16.20;51.57;97422.56;5025095;28;20053;-61
2023/05/10 10:40:40;;;;;;;1.60;1.60;;;;;;;17.13;48.83;97421.31;5022874;28;20077;-64
2023/05/10 10:43:27;;;;;;;1.58;1.58;;;;;;;16.12;51.81;97440.50;5023246;28;20045;-61
2023/05/10 10:46:13;;;;;;;1.40;1.40;;;;;;;17.51;49.12;97428.84;5021900;28;20294;-61
2023/05/10 10:48:42;;;;;;;1.70;1.70;;;;;;;16.37;48.91;97295.16;5008080;28;20483;-63
2023/05/10 10:51:08;;;;;;;1.75;1.75;;;;;;;18.25;47.10;97420.00;5017716;28;20136;-59
2023/05/10 10:53:41;;;;;;;1.80;1.80;;;;;;;18.90;47.17;97417.91;5023605;28;20061;-63
2023/05/10 10:56:14;;;;;;;1.60;1.60;;;;;;;19.06;45.98;97420.94;5023438;28;20060;-61
2023/05/10 10:58:48;;;;;;;1.80;1.80;;;;;;;17.98;46.98;97356.13;5024723;28;20605;-63
2023/05/10 11:01:17;;;;;;;1.45;1.45;;;;;;;17.51;47.81;97384.03;5024377;28;20049;-65
2023/05/10 11:04:05;;;;;;;1.80;1.80;;;;;;;18.17;49.39;97416.47;5023338;28;20042;-66
2023/05/10 11:06:35;;;;;;;1.50;1.50;;;;;;;17.96;47.90;97364.13;5027528;28;20045;-63
2023/05/10 11:09:11;;;;;;;1.60;1.60;;;;;;;18.31;47.73;97412.75;5023647;28;20049;-65
2023/05/10 11:11:58;;;;;;;1.52;1.52;;;;;;;18.31;46.06;97402.34;5022628;28;20037;-64
2023/05/10 11:14:25;;;;;;;1.60;1.60;;;;;;;18.43;47.04;97415.88;5023696;28;20056;-60
2023/05/10 11:16:51;;;;;;;1.75;1.75;;;;;;;18.16;48.13;97381.22;5022311;28;20053;-60
2023/05/10 11:19:19;;;;;;;1.60;1.60;;;;;;;17.72;48.20;97330.69;5021966;28;20590;-71
2023/05/10 11:21:50;;;;;;;1.60;1.60;;;;;;;18.18;47.35;97418.06;5022829;28;20535;-65
2023/05/10 11:24:27;;;;;;;1.60;1.60;;;;;;;18.24;48.50;97413.59;5022413;28;20136;-59
2023/05/10 11:26:53;;;;;;;2.00;2.00;;;;;;;18.50;47.37;97393.41;5018228;28;20107;-65
2023/05/10 11:29:21;;;;;;;1.70;1.70;;;;;;;18.38;46.80;97365.03;5023470;28;20053;-60
2023/05/10 11:31:49;;;;;;;1.90;1.90;;;;;;;18.72;46.35;97406.03;5024060;28;20080;-66
2023/05/10 11:34:24;;;;;;;1.67;1.67;;;;;;;18.97;46.32;97406.59;5024975;28;20057;-60
2023/05/10 11:36:53;;;;;;;1.85;1.85;;;;;;;19.27;45.59;97400.25;5024279;28;20117;-65
2023/05/10 11:39:21;;;;;;;1.90;1.90;;;;;;;19.26;45.42;97401.47;5025380;28;20053;-64
2023/05/10 11:41:49;;;;;;;1.70;1.70;;;;;;;19.34;45.58;97408.63;5040842;28;20755;-66